Oceanis — SVBC9 — position and weather

sailwx.info

Track history (hours):
 
Tides and Currents Weather Stations Pressure Air Temp Water Temp Dewpoint Dewpoint Depression Visibility Wind Speed Wind Dir Waves Ship Positions

Oceanis

Last reported at 2014-Sep-01 18:33 UTC. Time now 2014-Sep-01 18:36 UTC.
Position N 31°48' W 119°20'.

Length 330 m; draft 21.3 m.

Type: Tanker. MMSI: 241089000.

Date/timePositionNaut miles runAvg speedWind from/ knotsBaromVisibWave heightAir tempDewpointWater temp
2014-Sep-01 18:33N 31°48' W 119°20'4 3.6
2014-Sep-01 17:33N 31°51' W 119°23'6 5.6
2014-Sep-01 16:33N 31°55' W 119°27'3 3.0
2014-Sep-01 15:33N 31°57' W 119°30'1 1.0
2014-Sep-01 14:33N 31°58' W 119°30'1 1.2
2014-Sep-01 13:33N 31°58' W 119°32'2 1.5
2014-Sep-01 12:03N 32°00' W 119°33'1 1.1
2014-Sep-01 11:30N 32°01' W 119°33'1 1.0
2014-Sep-01 10:27N 32°01' W 119°34'1 0.9
2014-Sep-01 09:30N 32°02' W 119°35'1 0.6
2014-Sep-01 08:33N 32°02' W 119°36'1 0.6
2014-Sep-01 07:33N 32°03' W 119°36'1 0.6
2014-Sep-01 06:30N 32°04' W 119°36'1 0.6
2014-Sep-01 05:30N 32°04' W 119°36'1 0.6
2014-Sep-01 04:30N 32°05' W 119°36'1 0.6
2014-Sep-01 03:30N 32°05' W 119°36'1 0.7
2014-Sep-01 02:33N 32°06' W 119°36'1 0.6
2014-Sep-01 01:33N 32°06' W 119°36'1 0.7
2014-Sep-01 00:30N 32°07' W 119°36'1 0.7
2014-Aug-31 23:33N 32°08' W 119°37'3 2.6
2014-Aug-31 22:33N 32°06' W 119°34'1010.4
2014-Aug-31 21:33N 32°00' W 119°24'1 0.6
2014-Aug-31 20:33N 31°60' W 119°24'4 4.4
2014-Aug-31 19:33N 31°56' W 119°27'9 9.0
2014-Aug-31 18:33N 31°47' W 119°27'10 9.8
2014-Aug-31 17:33N 31°38' W 119°24'9 9.4
2014-Aug-31 16:33N 31°29' W 119°21'4 4.1
2014-Aug-31 15:33N 31°25' W 119°20'1 0.9
2014-Aug-31 14:30N 31°25' W 119°21'1 0.8
2014-Aug-31 13:30N 31°26' W 119°21'1 0.7
2014-Aug-31 12:30N 31°26' W 119°22'1 0.6
2014-Aug-31 11:30N 31°27' W 119°22'1 0.6
2014-Aug-31 10:33N 31°28' W 119°22'1 0.6
2014-Aug-31 09:24N 31°28' W 119°23'0 0.5
2014-Aug-31 08:30N 31°28' W 119°23'0 0.5
2014-Aug-31 07:30N 31°29' W 119°23'0 0.5
2014-Aug-31 06:30N 31°29' W 119°23'1 0.5
2014-Aug-31 05:30N 31°30' W 119°23'1 0.6
2014-Aug-31 04:30N 31°30' W 119°24'1 0.7
2014-Aug-31 03:30N 31°31' W 119°24'1 0.9
2014-Aug-31 02:27N 31°32' W 119°24'1 1.1
2014-Aug-31 01:30N 31°33' W 119°24'1 1.0
2014-Aug-31 00:30N 31°34' W 119°25'1 0.9
2014-Aug-30 23:30N 31°35' W 119°25'1 1.0
2014-Aug-30 22:24N 31°36' W 119°25'1 0.9
2014-Aug-30 21:33N 31°37' W 119°26'1 0.9
2014-Aug-30 20:33N 31°37' W 119°26'1 0.9
2014-Aug-30 19:30N 31°38' W 119°27'1 0.9
2014-Aug-30 18:30N 31°39' W 119°28'1 1.0
2014-Aug-30 17:33N 31°40' W 119°28'1 0.8
2014-Aug-30 16:33N 31°40' W 119°29'1 0.7
2014-Aug-30 15:30N 31°41' W 119°30'1 0.6
2014-Aug-30 14:33N 31°41' W 119°30'0 0.5
2014-Aug-30 13:33N 31°41' W 119°31'1 0.5
2014-Aug-30 11:30N 31°42' W 119°31'1 0.6
2014-Aug-30 10:30N 31°43' W 119°31'1 0.7
2014-Aug-30 09:33N 31°44' W 119°31'1 0.7
2014-Aug-30 08:33N 31°44' W 119°31'1 0.8
2014-Aug-30 07:33N 31°45' W 119°31'1 0.9
2014-Aug-30 06:33N 31°46' W 119°31'1 0.8
2014-Aug-30 05:33N 31°47' W 119°32'1 0.8
2014-Aug-30 04:33N 31°48' W 119°32'1 0.9
2014-Aug-30 03:30N 31°48' W 119°32'1 0.7
2014-Aug-30 02:33N 31°49' W 119°33'1 0.7
2014-Aug-30 01:33N 31°50' W 119°33'1 0.6
2014-Aug-30 00:33N 31°50' W 119°32'5 5.1
2014-Aug-29 23:33N 31°50' W 119°26'1 0.6
2014-Aug-29 22:33N 31°50' W 119°27'1 0.8
2014-Aug-29 21:33N 31°51' W 119°27'1 0.9
2014-Aug-29 20:33N 31°52' W 119°28'1 0.8
2014-Aug-29 19:33N 31°53' W 119°28'1 0.8
2014-Aug-29 18:33N 31°53' W 119°29'1 0.7
2014-Aug-29 17:27N 31°54' W 119°30'1 0.7
2014-Aug-29 16:30N 31°54' W 119°31'0 0.5
2014-Aug-29 15:30N 31°54' W 119°31'1 0.5
2014-Aug-29 14:33N 31°54' W 119°32'0 0.3
2014-Aug-29 13:30N 31°54' W 119°32'0 0.2
2014-Aug-29 12:30N 31°54' W 119°32'0 0.2
2014-Aug-29 11:33N 31°54' W 119°33'1 0.5
2014-Aug-29 10:33N 31°54' W 119°32'0 0.5
2014-Aug-29 09:33N 31°55' W 119°32'0 0.4
2014-Aug-29 08:33N 31°55' W 119°32'0 0.3
2014-Aug-29 07:33N 31°56' W 119°32'0 0.4
2014-Aug-29 06:33N 31°56' W 119°32'0 0.3
2014-Aug-29 05:33N 31°56' W 119°32'0 0.4
2014-Aug-29 04:33N 31°57' W 119°32'1 0.5
2014-Aug-29 03:33N 31°57' W 119°33'0 0.5
2014-Aug-29 02:30N 31°57' W 119°33'1 0.5
2014-Aug-29 01:30N 31°58' W 119°33'1 1.3
2014-Aug-29 00:33N 31°59' W 119°34'5 5.5
2014-Aug-28 23:33N 31°59' W 119°40'1312.5
2014-Aug-28 22:33N 31°58' W 119°55'1313.0
2014-Aug-28 21:33N 31°57' W 120°10'1312.9
2014-Aug-28 20:33N 31°56' W 120°25'1312.9
2014-Aug-28 19:33N 31°55' W 120°40'1313.1
2014-Aug-28 18:33N 31°53' W 120°56'1312.8
2014-Aug-28 17:33N 31°52' W 121°11'1312.8
2014-Aug-28 16:33N 31°51' W 121°26'1212.4
2014-Aug-28 15:33N 31°50' W 121°40'1212.0
2014-Aug-28 14:33N 31°54' W 121°54'1211.8
2014-Aug-28 13:33N 31°58' W 122°07'1211.5
2014-Aug-28 12:33N 32°02' W 122°20'1211.6
2014-Aug-28 11:33N 32°06' W 122°33'1211.7
2014-Aug-28 10:33N 32°10' W 122°46'1211.8
2014-Aug-28 09:33N 32°14' W 122°59'1111.3
2014-Aug-28 08:33N 32°18' W 123°11'1111.4
2014-Aug-28 07:33N 32°21' W 123°24'1211.7
2014-Aug-28 06:33N 32°25' W 123°37'1211.6
2014-Aug-28 05:33N 32°29' W 123°50'1111.3
2014-Aug-28 04:33N 32°33' W 124°03'1111.3
2014-Aug-28 03:33N 32°37' W 124°15'1111.4
2014-Aug-28 02:33N 32°41' W 124°28'1111.3
2014-Aug-28 01:33N 32°45' W 124°41'1211.2
2014-Aug-28 00:29N 32°49' W 124°54'1011.2
2014-Aug-27 23:33N 32°52' W 125°06'1311.2
2014-Aug-27 22:25N 32°56' W 125°20'1211.3
2014-Aug-27 21:19N 33°01' W 125°34'911.6
2014-Aug-27 20:33N 33°04' W 125°44'1211.6
2014-Aug-27 19:34N 33°07' W 125°57'1211.6
2014-Aug-27 18:33N 33°11' W 126°10'1211.5
2014-Aug-27 17:33N 33°15' W 126°23'1311.5
2014-Aug-27 16:28N 33°20' W 126°37'9911.9
2014-Aug-27 08:08N 33°53' W 128°29'5712.5
2014-Aug-27 03:33N 34°12' W 129°34'6312.3
2014-Aug-26 22:28N 34°27' W 130°48'  
Track history (hours):
 
Tides and Currents Weather Stations Pressure Air Temp Water Temp Dewpoint Dewpoint Depression Visibility Wind Speed Wind Dir Waves Ship Positions

Oceanis

Last reported at 2014-Sep-01 18:33 UTC. Time now 2014-Sep-01 18:36 UTC.
Position N 31°48' W 119°20'.

Length 330 m; draft 21.3 m.

Type: Tanker. MMSI: 241089000.

Date/timePositionNaut miles runAvg speedWind from/ knotsBaromVisibWave heightAir tempDewpointWater temp
2014-Sep-01 18:33N 31°48' W 119°20'4 3.6
2014-Sep-01 17:33N 31°51' W 119°23'6 5.6
2014-Sep-01 16:33N 31°55' W 119°27'3 3.0
2014-Sep-01 15:33N 31°57' W 119°30'1 1.0
2014-Sep-01 14:33N 31°58' W 119°30'1 1.2
2014-Sep-01 13:33N 31°58' W 119°32'2 1.5
2014-Sep-01 12:03N 32°00' W 119°33'1 1.1
2014-Sep-01 11:30N 32°01' W 119°33'1 1.0
2014-Sep-01 10:27N 32°01' W 119°34'1 0.9
2014-Sep-01 09:30N 32°02' W 119°35'1 0.6
2014-Sep-01 08:33N 32°02' W 119°36'1 0.6
2014-Sep-01 07:33N 32°03' W 119°36'1 0.6
2014-Sep-01 06:30N 32°04' W 119°36'1 0.6
2014-Sep-01 05:30N 32°04' W 119°36'1 0.6
2014-Sep-01 04:30N 32°05' W 119°36'1 0.6
2014-Sep-01 03:30N 32°05' W 119°36'1 0.7
2014-Sep-01 02:33N 32°06' W 119°36'1 0.6
2014-Sep-01 01:33N 32°06' W 119°36'1 0.7
2014-Sep-01 00:30N 32°07' W 119°36'1 0.7
2014-Aug-31 23:33N 32°08' W 119°37'3 2.6
2014-Aug-31 22:33N 32°06' W 119°34'1010.4
2014-Aug-31 21:33N 32°00' W 119°24'1 0.6
2014-Aug-31 20:33N 31°60' W 119°24'4 4.4
2014-Aug-31 19:33N 31°56' W 119°27'9 9.0
2014-Aug-31 18:33N 31°47' W 119°27'10 9.8
2014-Aug-31 17:33N 31°38' W 119°24'9 9.4
2014-Aug-31 16:33N 31°29' W 119°21'4 4.1
2014-Aug-31 15:33N 31°25' W 119°20'1 0.9
2014-Aug-31 14:30N 31°25' W 119°21'1 0.8
2014-Aug-31 13:30N 31°26' W 119°21'1 0.7
2014-Aug-31 12:30N 31°26' W 119°22'1 0.6
2014-Aug-31 11:30N 31°27' W 119°22'1 0.6
2014-Aug-31 10:33N 31°28' W 119°22'1 0.6
2014-Aug-31 09:24N 31°28' W 119°23'0 0.5
2014-Aug-31 08:30N 31°28' W 119°23'0 0.5
2014-Aug-31 07:30N 31°29' W 119°23'0 0.5
2014-Aug-31 06:30N 31°29' W 119°23'1 0.5
2014-Aug-31 05:30N 31°30' W 119°23'1 0.6
2014-Aug-31 04:30N 31°30' W 119°24'1 0.7
2014-Aug-31 03:30N 31°31' W 119°24'1 0.9
2014-Aug-31 02:27N 31°32' W 119°24'1 1.1
2014-Aug-31 01:30N 31°33' W 119°24'1 1.0
2014-Aug-31 00:30N 31°34' W 119°25'1 0.9
2014-Aug-30 23:30N 31°35' W 119°25'1 1.0
2014-Aug-30 22:24N 31°36' W 119°25'1 0.9
2014-Aug-30 21:33N 31°37' W 119°26'1 0.9
2014-Aug-30 20:33N 31°37' W 119°26'1 0.9
2014-Aug-30 19:30N 31°38' W 119°27'1 0.9
2014-Aug-30 18:30N 31°39' W 119°28'1 1.0
2014-Aug-30 17:33N 31°40' W 119°28'1 0.8
2014-Aug-30 16:33N 31°40' W 119°29'1 0.7
2014-Aug-30 15:30N 31°41' W 119°30'1 0.6
2014-Aug-30 14:33N 31°41' W 119°30'0 0.5
2014-Aug-30 13:33N 31°41' W 119°31'1 0.5
2014-Aug-30 11:30N 31°42' W 119°31'1 0.6
2014-Aug-30 10:30N 31°43' W 119°31'1 0.7
2014-Aug-30 09:33N 31°44' W 119°31'1 0.7
2014-Aug-30 08:33N 31°44' W 119°31'1 0.8
2014-Aug-30 07:33N 31°45' W 119°31'1 0.9
2014-Aug-30 06:33N 31°46' W 119°31'1 0.8
2014-Aug-30 05:33N 31°47' W 119°32'1 0.8
2014-Aug-30 04:33N 31°48' W 119°32'1 0.9
2014-Aug-30 03:30N 31°48' W 119°32'1 0.7
2014-Aug-30 02:33N 31°49' W 119°33'1 0.7
2014-Aug-30 01:33N 31°50' W 119°33'1 0.6
2014-Aug-30 00:33N 31°50' W 119°32'5 5.1
2014-Aug-29 23:33N 31°50' W 119°26'1 0.6
2014-Aug-29 22:33N 31°50' W 119°27'1 0.8
2014-Aug-29 21:33N 31°51' W 119°27'1 0.9
2014-Aug-29 20:33N 31°52' W 119°28'1 0.8
2014-Aug-29 19:33N 31°53' W 119°28'1 0.8
2014-Aug-29 18:33N 31°53' W 119°29'1 0.7
2014-Aug-29 17:27N 31°54' W 119°30'1 0.7
2014-Aug-29 16:30N 31°54' W 119°31'0 0.5
2014-Aug-29 15:30N 31°54' W 119°31'1 0.5
2014-Aug-29 14:33N 31°54' W 119°32'0 0.3
2014-Aug-29 13:30N 31°54' W 119°32'0 0.2
2014-Aug-29 12:30N 31°54' W 119°32'0 0.2
2014-Aug-29 11:33N 31°54' W 119°33'1 0.5
2014-Aug-29 10:33N 31°54' W 119°32'0 0.5
2014-Aug-29 09:33N 31°55' W 119°32'0 0.4
2014-Aug-29 08:33N 31°55' W 119°32'0 0.3
2014-Aug-29 07:33N 31°56' W 119°32'0 0.4
2014-Aug-29 06:33N 31°56' W 119°32'0 0.3
2014-Aug-29 05:33N 31°56' W 119°32'0 0.4
2014-Aug-29 04:33N 31°57' W 119°32'1 0.5
2014-Aug-29 03:33N 31°57' W 119°33'0 0.5
2014-Aug-29 02:30N 31°57' W 119°33'1 0.5
2014-Aug-29 01:30N 31°58' W 119°33'1 1.3
2014-Aug-29 00:33N 31°59' W 119°34'5 5.5
2014-Aug-28 23:33N 31°59' W 119°40'1312.5
2014-Aug-28 22:33N 31°58' W 119°55'1313.0
2014-Aug-28 21:33N 31°57' W 120°10'1312.9
2014-Aug-28 20:33N 31°56' W 120°25'1312.9
2014-Aug-28 19:33N 31°55' W 120°40'1313.1
2014-Aug-28 18:33N 31°53' W 120°56'1312.8
2014-Aug-28 17:33N 31°52' W 121°11'1312.8
2014-Aug-28 16:33N 31°51' W 121°26'1212.4
2014-Aug-28 15:33N 31°50' W 121°40'1212.0
2014-Aug-28 14:33N 31°54' W 121°54'1211.8
2014-Aug-28 13:33N 31°58' W 122°07'1211.5
2014-Aug-28 12:33N 32°02' W 122°20'1211.6
2014-Aug-28 11:33N 32°06' W 122°33'1211.7
2014-Aug-28 10:33N 32°10' W 122°46'1211.8
2014-Aug-28 09:33N 32°14' W 122°59'1111.3
2014-Aug-28 08:33N 32°18' W 123°11'1111.4
2014-Aug-28 07:33N 32°21' W 123°24'1211.7
2014-Aug-28 06:33N 32°25' W 123°37'1211.6
2014-Aug-28 05:33N 32°29' W 123°50'1111.3
2014-Aug-28 04:33N 32°33' W 124°03'1111.3
2014-Aug-28 03:33N 32°37' W 124°15'1111.4
2014-Aug-28 02:33N 32°41' W 124°28'1111.3
2014-Aug-28 01:33N 32°45' W 124°41'1211.2
2014-Aug-28 00:29N 32°49' W 124°54'1011.2
2014-Aug-27 23:33N 32°52' W 125°06'1311.2
2014-Aug-27 22:25N 32°56' W 125°20'1211.3
2014-Aug-27 21:19N 33°01' W 125°34'911.6
2014-Aug-27 20:33N 33°04' W 125°44'1211.6
2014-Aug-27 19:34N 33°07' W 125°57'1211.6
2014-Aug-27 18:33N 33°11' W 126°10'1211.5
2014-Aug-27 17:33N 33°15' W 126°23'1311.5
2014-Aug-27 16:28N 33°20' W 126°37'9911.9
2014-Aug-27 08:08N 33°53' W 128°29'5712.5
2014-Aug-27 03:33N 34°12' W 129°34'6312.3
2014-Aug-26 22:28N 34°27' W 130°48'  

Dump ship's entire track history